sensor_id;sensor_type;location;lat;lon;timestamp;P1;durP1;ratioP1;P2;durP2;ratioP2
24650;SDS011;12783;48.824;8.662;2024-03-02T00:01:15;5.13;;;3.10;;
24650;SDS011;12783;48.824;8.662;2024-03-02T00:03:42;4.03;;;3.00;;
24650;SDS011;12783;48.824;8.662;2024-03-02T00:06:10;6.35;;;2.95;;
24650;SDS011;12783;48.824;8.662;2024-03-02T00:08:37;7.07;;;3.20;;
24650;SDS011;12783;48.824;8.662;2024-03-02T00:11:04;5.68;;;3.53;;
24650;SDS011;12783;48.824;8.662;2024-03-02T00:13:30;5.47;;;3.10;;
24650;SDS011;12783;48.824;8.662;2024-03-02T00:15:58;4.20;;;2.80;;
24650;SDS011;12783;48.824;8.662;2024-03-02T00:18:26;5.75;;;2.95;;
24650;SDS011;12783;48.824;8.662;2024-03-02T00:20:57;4.40;;;3.05;;
24650;SDS011;12783;48.824;8.662;2024-03-02T00:23:27;4.35;;;2.97;;
24650;SDS011;12783;48.824;8.662;2024-03-02T00:25:55;4.55;;;2.75;;
24650;SDS011;12783;48.824;8.662;2024-03-02T00:30:51;5.05;;;3.28;;
24650;SDS011;12783;48.824;8.662;2024-03-02T00:33:32;5.32;;;3.00;;
24650;SDS011;12783;48.824;8.662;2024-03-02T00:35:59;6.18;;;3.08;;
24650;SDS011;12783;48.824;8.662;2024-03-02T00:38:27;4.70;;;2.92;;
24650;SDS011;12783;48.824;8.662;2024-03-02T00:40:56;4.88;;;3.03;;
24650;SDS011;12783;48.824;8.662;2024-03-02T00:46:17;5.97;;;3.53;;
24650;SDS011;12783;48.824;8.662;2024-03-02T00:48:51;4.60;;;3.10;;
24650;SDS011;12783;48.824;8.662;2024-03-02T00:51:21;8.50;;;3.80;;
24650;SDS011;12783;48.824;8.662;2024-03-02T00:53:50;6.65;;;3.72;;
24650;SDS011;12783;48.824;8.662;2024-03-02T00:56:18;6.55;;;3.90;;
24650;SDS011;12783;48.824;8.662;2024-03-02T00:58:46;6.70;;;3.95;;
24650;SDS011;12783;48.824;8.662;2024-03-02T01:01:12;7.25;;;4.00;;
24650;SDS011;12783;48.824;8.662;2024-03-02T01:03:40;7.35;;;3.92;;
24650;SDS011;12783;48.824;8.662;2024-03-02T01:06:08;5.57;;;3.60;;
24650;SDS011;12783;48.824;8.662;2024-03-02T01:08:35;7.15;;;3.63;;
24650;SDS011;12783;48.824;8.662;2024-03-02T01:11:02;5.22;;;3.33;;
24650;SDS011;12783;48.824;8.662;2024-03-02T01:13:30;6.85;;;3.38;;
24650;SDS011;12783;48.824;8.662;2024-03-02T01:15:57;5.32;;;3.20;;
24650;SDS011;12783;48.824;8.662;2024-03-02T01:18:24;5.82;;;3.47;;
24650;SDS011;12783;48.824;8.662;2024-03-02T01:20:51;5.50;;;3.42;;
24650;SDS011;12783;48.824;8.662;2024-03-02T01:23:19;6.55;;;3.70;;
24650;SDS011;12783;48.824;8.662;2024-03-02T01:25:49;4.25;;;3.00;;
24650;SDS011;12783;48.824;8.662;2024-03-02T01:28:17;4.53;;;3.00;;
24650;SDS011;12783;48.824;8.662;2024-03-02T01:30:45;5.50;;;3.10;;
24650;SDS011;12783;48.824;8.662;2024-03-02T01:33:12;6.00;;;3.45;;
24650;SDS011;12783;48.824;8.662;2024-03-02T01:35:39;6.50;;;3.30;;
24650;SDS011;12783;48.824;8.662;2024-03-02T01:38:06;6.00;;;3.78;;
24650;SDS011;12783;48.824;8.662;2024-03-02T01:40:34;9.77;;;3.67;;
24650;SDS011;12783;48.824;8.662;2024-03-02T01:43:01;6.47;;;3.10;;
24650;SDS011;12783;48.824;8.662;2024-03-02T01:45:28;5.22;;;3.40;;
24650;SDS011;12783;48.824;8.662;2024-03-02T01:47:55;6.57;;;2.92;;
24650;SDS011;12783;48.824;8.662;2024-03-02T01:50:26;3.47;;;2.17;;
24650;SDS011;12783;48.824;8.662;2024-03-02T01:52:55;3.90;;;2.30;;
24650;SDS011;12783;48.824;8.662;2024-03-02T01:55:22;4.63;;;2.75;;
24650;SDS011;12783;48.824;8.662;2024-03-02T01:57:49;6.00;;;2.90;;
24650;SDS011;12783;48.824;8.662;2024-03-02T02:00:17;3.63;;;2.70;;
24650;SDS011;12783;48.824;8.662;2024-03-02T02:02:47;6.82;;;2.72;;
24650;SDS011;12783;48.824;8.662;2024-03-02T02:05:15;4.78;;;2.63;;
24650;SDS011;12783;48.824;8.662;2024-03-02T02:07:42;4.10;;;2.42;;
24650;SDS011;12783;48.824;8.662;2024-03-02T02:10:09;3.63;;;2.20;;
24650;SDS011;12783;48.824;8.662;2024-03-02T02:12:37;2.83;;;1.90;;
24650;SDS011;12783;48.824;8.662;2024-03-02T02:15:04;4.82;;;2.20;;
24650;SDS011;12783;48.824;8.662;2024-03-02T02:17:51;2.83;;;1.90;;
24650;SDS011;12783;48.824;8.662;2024-03-02T02:20:18;2.78;;;1.88;;
24650;SDS011;12783;48.824;8.662;2024-03-02T02:23:19;3.75;;;1.90;;
24650;SDS011;12783;48.824;8.662;2024-03-02T02:25:40;2.85;;;1.85;;
24650;SDS011;12783;48.824;8.662;2024-03-02T02:28:06;6.82;;;2.00;;
24650;SDS011;12783;48.824;8.662;2024-03-02T02:30:33;3.30;;;1.92;;
24650;SDS011;12783;48.824;8.662;2024-03-02T02:33:01;3.58;;;1.98;;
24650;SDS011;12783;48.824;8.662;2024-03-02T02:35:28;3.92;;;2.03;;
24650;SDS011;12783;48.824;8.662;2024-03-02T02:37:56;2.58;;;1.58;;
24650;SDS011;12783;48.824;8.662;2024-03-02T02:40:24;4.15;;;1.60;;
24650;SDS011;12783;48.824;8.662;2024-03-02T02:42:51;2.40;;;1.48;;
24650;SDS011;12783;48.824;8.662;2024-03-02T02:45:19;4.57;;;1.88;;
24650;SDS011;12783;48.824;8.662;2024-03-02T02:47:46;5.47;;;1.80;;
24650;SDS011;12783;48.824;8.662;2024-03-02T02:50:13;2.72;;;1.80;;
24650;SDS011;12783;48.824;8.662;2024-03-02T02:52:40;2.22;;;1.70;;
24650;SDS011;12783;48.824;8.662;2024-03-02T02:55:09;2.90;;;1.92;;
24650;SDS011;12783;48.824;8.662;2024-03-02T02:57:37;4.78;;;1.98;;
24650;SDS011;12783;48.824;8.662;2024-03-02T03:00:12;2.63;;;1.50;;
24650;SDS011;12783;48.824;8.662;2024-03-02T03:02:43;3.42;;;1.73;;
24650;SDS011;12783;48.824;8.662;2024-03-02T03:05:11;2.60;;;1.50;;
24650;SDS011;12783;48.824;8.662;2024-03-02T03:07:41;2.13;;;1.60;;
24650;SDS011;12783;48.824;8.662;2024-03-02T03:10:08;4.68;;;1.67;;
24650;SDS011;12783;48.824;8.662;2024-03-02T03:12:35;2.80;;;1.80;;
24650;SDS011;12783;48.824;8.662;2024-03-02T03:15:02;2.72;;;1.73;;
24650;SDS011;12783;48.824;8.662;2024-03-02T03:17:31;2.97;;;1.92;;
24650;SDS011;12783;48.824;8.662;2024-03-02T03:19:58;3.92;;;1.80;;
24650;SDS011;12783;48.824;8.662;2024-03-02T03:22:25;2.75;;;1.60;;
24650;SDS011;12783;48.824;8.662;2024-03-02T03:24:52;2.00;;;1.40;;
24650;SDS011;12783;48.824;8.662;2024-03-02T03:27:19;1.98;;;1.20;;
24650;SDS011;12783;48.824;8.662;2024-03-02T03:29:46;3.67;;;1.42;;
24650;SDS011;12783;48.824;8.662;2024-03-02T03:32:13;2.95;;;1.38;;
24650;SDS011;12783;48.824;8.662;2024-03-02T03:34:40;3.78;;;1.45;;
24650;SDS011;12783;48.824;8.662;2024-03-02T03:37:07;2.08;;;1.30;;
24650;SDS011;12783;48.824;8.662;2024-03-02T03:39:34;1.63;;;1.20;;
24650;SDS011;12783;48.824;8.662;2024-03-02T03:42:02;1.60;;;1.20;;
24650;SDS011;12783;48.824;8.662;2024-03-02T03:44:29;1.30;;;1.10;;
24650;SDS011;12783;48.824;8.662;2024-03-02T03:46:56;3.30;;;1.40;;
24650;SDS011;12783;48.824;8.662;2024-03-02T03:49:23;2.83;;;1.60;;
24650;SDS011;12783;48.824;8.662;2024-03-02T03:51:50;1.80;;;1.10;;
24650;SDS011;12783;48.824;8.662;2024-03-02T03:54:17;1.33;;;1.05;;
24650;SDS011;12783;48.824;8.662;2024-03-02T03:56:43;1.48;;;1.13;;
24650;SDS011;12783;48.824;8.662;2024-03-02T03:59:10;1.35;;;1.17;;
24650;SDS011;12783;48.824;8.662;2024-03-02T04:01:37;1.75;;;1.10;;
24650;SDS011;12783;48.824;8.662;2024-03-02T04:04:04;1.98;;;1.20;;
24650;SDS011;12783;48.824;8.662;2024-03-02T04:06:31;3.72;;;1.40;;
24650;SDS011;12783;48.824;8.662;2024-03-02T04:08:58;1.88;;;1.40;;
24650;SDS011;12783;48.824;8.662;2024-03-02T04:11:25;1.38;;;1.05;;
24650;SDS011;12783;48.824;8.662;2024-03-02T04:13:52;1.30;;;1.08;;
24650;SDS011;12783;48.824;8.662;2024-03-02T04:16:23;0.80;;;0.77;;
24650;SDS011;12783;48.824;8.662;2024-03-02T04:18:49;1.20;;;0.80;;
24650;SDS011;12783;48.824;8.662;2024-03-02T04:21:16;1.88;;;1.35;;
24650;SDS011;12783;48.824;8.662;2024-03-02T04:23:43;1.73;;;1.10;;
24650;SDS011;12783;48.824;8.662;2024-03-02T04:26:10;1.77;;;1.10;;
24650;SDS011;12783;48.824;8.662;2024-03-02T04:28:36;1.30;;;1.10;;
24650;SDS011;12783;48.824;8.662;2024-03-02T04:31:03;1.08;;;0.80;;
24650;SDS011;12783;48.824;8.662;2024-03-02T04:33:30;1.73;;;1.00;;
24650;SDS011;12783;48.824;8.662;2024-03-02T04:35:57;2.47;;;1.00;;
24650;SDS011;12783;48.824;8.662;2024-03-02T04:38:24;1.55;;;1.10;;
24650;SDS011;12783;48.824;8.662;2024-03-02T04:40:50;1.23;;;1.05;;
24650;SDS011;12783;48.824;8.662;2024-03-02T04:43:17;1.40;;;1.20;;
24650;SDS011;12783;48.824;8.662;2024-03-02T04:45:45;4.45;;;1.60;;
24650;SDS011;12783;48.824;8.662;2024-03-02T04:48:12;2.17;;;1.30;;
24650;SDS011;12783;48.824;8.662;2024-03-02T04:50:40;1.52;;;1.10;;
24650;SDS011;12783;48.824;8.662;2024-03-02T04:53:07;1.98;;;1.40;;
24650;SDS011;12783;48.824;8.662;2024-03-02T04:55:34;1.30;;;1.10;;
24650;SDS011;12783;48.824;8.662;2024-03-02T04:58:01;1.98;;;1.52;;
24650;SDS011;12783;48.824;8.662;2024-03-02T05:00:28;2.08;;;1.40;;
24650;SDS011;12783;48.824;8.662;2024-03-02T05:02:54;2.22;;;1.33;;
24650;SDS011;12783;48.824;8.662;2024-03-02T05:05:21;3.05;;;1.60;;
24650;SDS011;12783;48.824;8.662;2024-03-02T05:07:48;1.58;;;1.15;;
24650;SDS011;12783;48.824;8.662;2024-03-02T05:10:15;3.15;;;1.73;;
24650;SDS011;12783;48.824;8.662;2024-03-02T05:12:42;3.28;;;1.50;;
24650;SDS011;12783;48.824;8.662;2024-03-02T05:15:09;3.70;;;1.73;;
24650;SDS011;12783;48.824;8.662;2024-03-02T05:17:37;2.20;;;1.60;;
24650;SDS011;12783;48.824;8.662;2024-03-02T05:20:05;2.35;;;1.38;;
24650;SDS011;12783;48.824;8.662;2024-03-02T05:22:34;1.40;;;1.10;;
24650;SDS011;12783;48.824;8.662;2024-03-02T05:25:02;2.83;;;1.65;;
24650;SDS011;12783;48.824;8.662;2024-03-02T05:27:30;3.03;;;1.42;;
24650;SDS011;12783;48.824;8.662;2024-03-02T05:29:59;2.33;;;1.60;;
24650;SDS011;12783;48.824;8.662;2024-03-02T05:32:26;2.58;;;1.50;;
24650;SDS011;12783;48.824;8.662;2024-03-02T05:34:53;1.80;;;1.50;;
24650;SDS011;12783;48.824;8.662;2024-03-02T05:37:20;4.00;;;1.58;;
24650;SDS011;12783;48.824;8.662;2024-03-02T05:39:46;2.35;;;1.60;;
24650;SDS011;12783;48.824;8.662;2024-03-02T05:42:13;1.75;;;1.35;;
24650;SDS011;12783;48.824;8.662;2024-03-02T05:44:41;2.95;;;1.65;;
24650;SDS011;12783;48.824;8.662;2024-03-02T05:47:07;2.05;;;1.58;;
24650;SDS011;12783;48.824;8.662;2024-03-02T05:49:37;5.95;;;1.90;;
24650;SDS011;12783;48.824;8.662;2024-03-02T05:52:05;2.25;;;1.30;;
24650;SDS011;12783;48.824;8.662;2024-03-02T05:54:33;3.22;;;1.80;;
24650;SDS011;12783;48.824;8.662;2024-03-02T05:57:00;2.60;;;1.63;;
24650;SDS011;12783;48.824;8.662;2024-03-02T05:59:43;1.85;;;1.27;;
24650;SDS011;12783;48.824;8.662;2024-03-02T06:02:10;1.80;;;1.40;;
24650;SDS011;12783;48.824;8.662;2024-03-02T06:04:37;2.10;;;1.40;;
24650;SDS011;12783;48.824;8.662;2024-03-02T06:07:04;3.13;;;1.40;;
24650;SDS011;12783;48.824;8.662;2024-03-02T06:09:30;3.92;;;1.33;;
24650;SDS011;12783;48.824;8.662;2024-03-02T06:11:57;1.67;;;1.10;;
24650;SDS011;12783;48.824;8.662;2024-03-02T06:14:24;2.63;;;1.20;;
24650;SDS011;12783;48.824;8.662;2024-03-02T06:16:51;1.35;;;1.00;;
24650;SDS011;12783;48.824;8.662;2024-03-02T06:19:18;3.00;;;0.93;;
24650;SDS011;12783;48.824;8.662;2024-03-02T06:21:44;1.20;;;0.90;;
24650;SDS011;12783;48.824;8.662;2024-03-02T06:24:11;1.20;;;0.90;;
24650;SDS011;12783;48.824;8.662;2024-03-02T06:26:38;1.60;;;0.98;;
24650;SDS011;12783;48.824;8.662;2024-03-02T06:29:05;0.70;;;0.70;;
24650;SDS011;12783;48.824;8.662;2024-03-02T06:31:33;0.52;;;0.52;;
24650;SDS011;12783;48.824;8.662;2024-03-02T06:34:01;1.88;;;0.90;;
24650;SDS011;12783;48.824;8.662;2024-03-02T06:36:30;2.17;;;0.90;;
24650;SDS011;12783;48.824;8.662;2024-03-02T06:38:56;1.02;;;0.80;;
24650;SDS011;12783;48.824;8.662;2024-03-02T06:41:23;1.60;;;1.02;;
24650;SDS011;12783;48.824;8.662;2024-03-02T06:43:50;1.35;;;0.93;;
24650;SDS011;12783;48.824;8.662;2024-03-02T06:46:20;1.67;;;1.00;;
24650;SDS011;12783;48.824;8.662;2024-03-02T06:48:47;2.17;;;1.00;;
24650;SDS011;12783;48.824;8.662;2024-03-02T06:51:14;2.13;;;1.20;;
24650;SDS011;12783;48.824;8.662;2024-03-02T06:53:42;3.30;;;1.05;;
24650;SDS011;12783;48.824;8.662;2024-03-02T06:56:08;3.33;;;1.08;;
24650;SDS011;12783;48.824;8.662;2024-03-02T06:58:35;1.33;;;1.13;;
24650;SDS011;12783;48.824;8.662;2024-03-02T07:01:02;1.20;;;1.00;;
24650;SDS011;12783;48.824;8.662;2024-03-02T07:03:29;1.30;;;0.95;;
24650;SDS011;12783;48.824;8.662;2024-03-02T07:05:56;1.38;;;1.13;;
24650;SDS011;12783;48.824;8.662;2024-03-02T07:08:23;1.55;;;1.08;;
24650;SDS011;12783;48.824;8.662;2024-03-02T07:10:50;2.30;;;1.35;;
24650;SDS011;12783;48.824;8.662;2024-03-02T07:13:17;1.83;;;1.00;;
24650;SDS011;12783;48.824;8.662;2024-03-02T07:15:43;1.58;;;1.10;;
24650;SDS011;12783;48.824;8.662;2024-03-02T07:18:30;2.25;;;1.20;;
24650;SDS011;12783;48.824;8.662;2024-03-02T07:20:57;1.60;;;0.85;;
24650;SDS011;12783;48.824;8.662;2024-03-02T07:23:27;3.28;;;1.00;;
24650;SDS011;12783;48.824;8.662;2024-03-02T07:25:53;3.17;;;1.10;;
24650;SDS011;12783;48.824;8.662;2024-03-02T07:28:26;3.40;;;1.05;;
24650;SDS011;12783;48.824;8.662;2024-03-02T07:33:27;1.23;;;0.90;;
24650;SDS011;12783;48.824;8.662;2024-03-02T07:35:54;1.05;;;0.88;;
24650;SDS011;12783;48.824;8.662;2024-03-02T07:38:22;0.95;;;0.60;;
24650;SDS011;12783;48.824;8.662;2024-03-02T07:40:49;1.35;;;1.00;;
24650;SDS011;12783;48.824;8.662;2024-03-02T07:43:17;1.30;;;0.70;;
24650;SDS011;12783;48.824;8.662;2024-03-02T07:45:44;1.80;;;0.70;;
24650;SDS011;12783;48.824;8.662;2024-03-02T07:48:14;0.80;;;0.50;;
24650;SDS011;12783;48.824;8.662;2024-03-02T07:50:42;1.08;;;0.70;;
24650;SDS011;12783;48.824;8.662;2024-03-02T07:53:09;1.20;;;1.08;;
24650;SDS011;12783;48.824;8.662;2024-03-02T07:55:36;1.20;;;0.80;;
24650;SDS011;12783;48.824;8.662;2024-03-02T07:58:02;1.65;;;0.95;;
24650;SDS011;12783;48.824;8.662;2024-03-02T08:00:29;1.27;;;0.90;;
24650;SDS011;12783;48.824;8.662;2024-03-02T08:02:56;1.15;;;0.70;;
24650;SDS011;12783;48.824;8.662;2024-03-02T08:05:23;1.30;;;0.77;;
24650;SDS011;12783;48.824;8.662;2024-03-02T08:07:50;1.25;;;1.00;;
24650;SDS011;12783;48.824;8.662;2024-03-02T08:10:19;1.38;;;0.90;;
24650;SDS011;12783;48.824;8.662;2024-03-02T08:12:46;1.08;;;0.85;;
24650;SDS011;12783;48.824;8.662;2024-03-02T08:15:13;0.57;;;0.50;;
24650;SDS011;12783;48.824;8.662;2024-03-02T08:17:40;1.30;;;0.70;;
24650;SDS011;12783;48.824;8.662;2024-03-02T08:20:11;0.98;;;0.68;;
24650;SDS011;12783;48.824;8.662;2024-03-02T08:22:39;2.65;;;0.80;;
24650;SDS011;12783;48.824;8.662;2024-03-02T08:25:06;0.70;;;0.63;;
24650;SDS011;12783;48.824;8.662;2024-03-02T08:27:34;1.73;;;0.32;;
24650;SDS011;12783;48.824;8.662;2024-03-02T08:30:01;0.82;;;0.70;;
24650;SDS011;12783;48.824;8.662;2024-03-02T08:32:32;0.50;;;0.50;;
24650;SDS011;12783;48.824;8.662;2024-03-02T08:34:59;1.60;;;0.60;;
24650;SDS011;12783;48.824;8.662;2024-03-02T08:37:26;0.77;;;0.65;;
24650;SDS011;12783;48.824;8.662;2024-03-02T08:39:53;1.00;;;0.60;;
24650;SDS011;12783;48.824;8.662;2024-03-02T08:42:20;1.88;;;0.60;;
24650;SDS011;12783;48.824;8.662;2024-03-02T08:44:47;0.85;;;0.60;;
24650;SDS011;12783;48.824;8.662;2024-03-02T08:47:14;0.65;;;0.50;;
24650;SDS011;12783;48.824;8.662;2024-03-02T08:49:41;1.20;;;0.60;;
24650;SDS011;12783;48.824;8.662;2024-03-02T08:52:07;1.00;;;0.52;;
24650;SDS011;12783;48.824;8.662;2024-03-02T08:54:35;0.55;;;0.55;;
24650;SDS011;12783;48.824;8.662;2024-03-02T08:57:02;1.98;;;0.60;;
24650;SDS011;12783;48.824;8.662;2024-03-02T08:59:29;0.80;;;0.52;;
24650;SDS011;12783;48.824;8.662;2024-03-02T09:01:57;0.95;;;0.60;;
24650;SDS011;12783;48.824;8.662;2024-03-02T09:04:24;0.60;;;0.57;;
24650;SDS011;12783;48.824;8.662;2024-03-02T09:06:53;1.17;;;0.68;;
24650;SDS011;12783;48.824;8.662;2024-03-02T09:09:20;0.68;;;0.50;;
24650;SDS011;12783;48.824;8.662;2024-03-02T09:11:47;1.02;;;0.50;;
24650;SDS011;12783;48.824;8.662;2024-03-02T09:14:14;0.30;;;0.30;;
24650;SDS011;12783;48.824;8.662;2024-03-02T09:16:42;0.47;;;0.45;;
24650;SDS011;12783;48.824;8.662;2024-03-02T09:19:08;0.57;;;0.50;;
24650;SDS011;12783;48.824;8.662;2024-03-02T09:21:36;1.00;;;0.60;;
24650;SDS011;12783;48.824;8.662;2024-03-02T09:24:03;0.98;;;0.80;;
24650;SDS011;12783;48.824;8.662;2024-03-02T09:26:30;1.88;;;0.77;;
24650;SDS011;12783;48.824;8.662;2024-03-02T09:28:57;1.85;;;1.05;;
24650;SDS011;12783;48.824;8.662;2024-03-02T09:31:24;1.27;;;0.80;;
24650;SDS011;12783;48.824;8.662;2024-03-02T09:33:51;3.50;;;0.98;;
24650;SDS011;12783;48.824;8.662;2024-03-02T09:36:19;1.27;;;0.77;;
24650;SDS011;12783;48.824;8.662;2024-03-02T09:38:46;2.25;;;1.20;;
24650;SDS011;12783;48.824;8.662;2024-03-02T09:41:16;2.00;;;1.38;;
24650;SDS011;12783;48.824;8.662;2024-03-02T09:43:43;1.50;;;1.13;;
24650;SDS011;12783;48.824;8.662;2024-03-02T09:46:10;2.30;;;1.58;;
24650;SDS011;12783;48.824;8.662;2024-03-02T09:48:37;3.13;;;1.90;;
24650;SDS011;12783;48.824;8.662;2024-03-02T09:51:04;2.60;;;1.63;;
24650;SDS011;12783;48.824;8.662;2024-03-02T09:53:32;2.42;;;1.70;;
24650;SDS011;12783;48.824;8.662;2024-03-02T09:56:00;2.17;;;1.40;;
24650;SDS011;12783;48.824;8.662;2024-03-02T09:58:27;2.10;;;1.60;;
24650;SDS011;12783;48.824;8.662;2024-03-02T10:00:54;2.33;;;1.63;;
24650;SDS011;12783;48.824;8.662;2024-03-02T10:03:21;2.67;;;1.60;;
24650;SDS011;12783;48.824;8.662;2024-03-02T10:05:49;2.90;;;1.42;;
24650;SDS011;12783;48.824;8.662;2024-03-02T10:08:16;1.95;;;1.42;;
24650;SDS011;12783;48.824;8.662;2024-03-02T10:10:43;2.38;;;1.42;;
24650;SDS011;12783;48.824;8.662;2024-03-02T10:13:10;1.73;;;1.17;;
24650;SDS011;12783;48.824;8.662;2024-03-02T10:15:38;1.65;;;1.40;;
24650;SDS011;12783;48.824;8.662;2024-03-02T10:18:09;2.67;;;1.20;;
24650;SDS011;12783;48.824;8.662;2024-03-02T10:20:38;1.33;;;1.00;;
24650;SDS011;12783;48.824;8.662;2024-03-02T10:23:13;1.08;;;0.90;;
24650;SDS011;12783;48.824;8.662;2024-03-02T10:25:41;1.00;;;0.90;;
24650;SDS011;12783;48.824;8.662;2024-03-02T10:28:22;1.00;;;0.88;;
24650;SDS011;12783;48.824;8.662;2024-03-02T10:30:49;2.05;;;1.40;;
24650;SDS011;12783;48.824;8.662;2024-03-02T10:33:18;1.00;;;0.70;;
24650;SDS011;12783;48.824;8.662;2024-03-02T10:35:45;0.50;;;0.50;;
24650;SDS011;12783;48.824;8.662;2024-03-02T10:38:15;0.50;;;0.50;;
24650;SDS011;12783;48.824;8.662;2024-03-02T10:40:43;0.50;;;0.40;;
24650;SDS011;12783;48.824;8.662;2024-03-02T10:43:13;0.98;;;0.85;;
24650;SDS011;12783;48.824;8.662;2024-03-02T10:45:41;1.00;;;0.90;;
24650;SDS011;12783;48.824;8.662;2024-03-02T10:48:08;1.50;;;0.70;;
24650;SDS011;12783;48.824;8.662;2024-03-02T10:50:35;2.17;;;1.45;;
24650;SDS011;12783;48.824;8.662;2024-03-02T10:53:01;1.17;;;0.98;;
24650;SDS011;12783;48.824;8.662;2024-03-02T10:55:30;1.58;;;1.00;;
24650;SDS011;12783;48.824;8.662;2024-03-02T10:57:57;2.95;;;1.48;;
24650;SDS011;12783;48.824;8.662;2024-03-02T11:00:30;2.25;;;1.48;;
24650;SDS011;12783;48.824;8.662;2024-03-02T11:03:03;2.15;;;1.55;;
24650;SDS011;12783;48.824;8.662;2024-03-02T11:05:33;3.20;;;2.08;;
24650;SDS011;12783;48.824;8.662;2024-03-02T11:08:06;2.17;;;1.77;;
24650;SDS011;12783;48.824;8.662;2024-03-02T11:10:39;2.53;;;1.70;;
24650;SDS011;12783;48.824;8.662;2024-03-02T11:13:09;2.58;;;1.70;;
24650;SDS011;12783;48.824;8.662;2024-03-02T11:15:36;2.55;;;1.67;;
24650;SDS011;12783;48.824;8.662;2024-03-02T11:18:04;2.92;;;1.88;;
24650;SDS011;12783;48.824;8.662;2024-03-02T11:20:38;4.47;;;1.90;;
24650;SDS011;12783;48.824;8.662;2024-03-02T11:23:06;2.67;;;1.80;;
24650;SDS011;12783;48.824;8.662;2024-03-02T11:25:34;3.00;;;1.67;;
24650;SDS011;12783;48.824;8.662;2024-03-02T11:28:02;3.38;;;2.05;;
24650;SDS011;12783;48.824;8.662;2024-03-02T11:35:40;3.45;;;2.45;;
24650;SDS011;12783;48.824;8.662;2024-03-02T11:38:15;2.25;;;2.03;;
24650;SDS011;12783;48.824;8.662;2024-03-02T11:40:42;2.08;;;1.60;;
24650;SDS011;12783;48.824;8.662;2024-03-02T11:43:09;3.65;;;2.00;;
24650;SDS011;12783;48.824;8.662;2024-03-02T11:45:36;1.92;;;1.42;;
24650;SDS011;12783;48.824;8.662;2024-03-02T11:48:08;1.73;;;1.52;;
24650;SDS011;12783;48.824;8.662;2024-03-02T11:50:40;2.78;;;2.03;;
24650;SDS011;12783;48.824;8.662;2024-03-02T11:53:09;1.50;;;1.33;;
24650;SDS011;12783;48.824;8.662;2024-03-02T11:55:37;2.72;;;1.70;;
24650;SDS011;12783;48.824;8.662;2024-03-02T11:58:04;3.47;;;1.80;;
24650;SDS011;12783;48.824;8.662;2024-03-02T12:00:31;1.85;;;1.40;;
24650;SDS011;12783;48.824;8.662;2024-03-02T12:03:02;3.25;;;1.50;;
24650;SDS011;12783;48.824;8.662;2024-03-02T12:05:33;2.22;;;1.40;;
24650;SDS011;12783;48.824;8.662;2024-03-02T12:08:00;2.15;;;1.48;;
24650;SDS011;12783;48.824;8.662;2024-03-02T12:10:28;3.28;;;1.60;;
24650;SDS011;12783;48.824;8.662;2024-03-02T12:13:01;2.55;;;1.70;;
24650;SDS011;12783;48.824;8.662;2024-03-02T12:15:30;2.22;;;1.60;;
24650;SDS011;12783;48.824;8.662;2024-03-02T12:17:59;2.22;;;1.48;;
24650;SDS011;12783;48.824;8.662;2024-03-02T12:20:27;2.70;;;1.70;;
24650;SDS011;12783;48.824;8.662;2024-03-02T12:22:57;8.27;;;1.73;;
24650;SDS011;12783;48.824;8.662;2024-03-02T12:25:25;3.10;;;1.35;;
24650;SDS011;12783;48.824;8.662;2024-03-02T12:27:53;3.95;;;1.40;;
24650;SDS011;12783;48.824;8.662;2024-03-02T12:30:22;1.92;;;1.70;;
24650;SDS011;12783;48.824;8.662;2024-03-02T12:32:50;2.47;;;1.70;;
24650;SDS011;12783;48.824;8.662;2024-03-02T12:35:17;2.63;;;1.88;;
24650;SDS011;12783;48.824;8.662;2024-03-02T12:37:45;3.80;;;1.95;;
24650;SDS011;12783;48.824;8.662;2024-03-02T12:40:13;3.47;;;2.03;;
24650;SDS011;12783;48.824;8.662;2024-03-02T12:42:41;2.45;;;1.80;;
24650;SDS011;12783;48.824;8.662;2024-03-02T12:45:10;3.33;;;1.88;;
24650;SDS011;12783;48.824;8.662;2024-03-02T12:47:39;2.53;;;1.67;;
24650;SDS011;12783;48.824;8.662;2024-03-02T12:50:07;2.22;;;1.70;;
24650;SDS011;12783;48.824;8.662;2024-03-02T12:52:35;2.92;;;1.80;;
24650;SDS011;12783;48.824;8.662;2024-03-02T12:55:03;2.60;;;1.70;;
24650;SDS011;12783;48.824;8.662;2024-03-02T12:57:31;4.78;;;1.73;;
24650;SDS011;12783;48.824;8.662;2024-03-02T13:00:00;1.75;;;1.48;;
24650;SDS011;12783;48.824;8.662;2024-03-02T13:02:28;2.65;;;1.70;;
24650;SDS011;12783;48.824;8.662;2024-03-02T13:04:55;4.13;;;1.40;;
24650;SDS011;12783;48.824;8.662;2024-03-02T13:07:25;3.45;;;1.60;;
24650;SDS011;12783;48.824;8.662;2024-03-02T13:09:52;1.60;;;1.38;;
24650;SDS011;12783;48.824;8.662;2024-03-02T13:12:22;3.42;;;1.65;;
24650;SDS011;12783;48.824;8.662;2024-03-02T13:14:53;1.83;;;1.52;;
24650;SDS011;12783;48.824;8.662;2024-03-02T13:17:20;3.20;;;1.83;;
24650;SDS011;12783;48.824;8.662;2024-03-02T13:22:24;3.03;;;1.65;;
24650;SDS011;12783;48.824;8.662;2024-03-02T13:24:52;2.78;;;1.63;;
24650;SDS011;12783;48.824;8.662;2024-03-02T13:27:22;3.15;;;1.50;;
24650;SDS011;12783;48.824;8.662;2024-03-02T13:29:50;1.95;;;1.30;;
24650;SDS011;12783;48.824;8.662;2024-03-02T13:32:17;2.92;;;1.60;;
24650;SDS011;12783;48.824;8.662;2024-03-02T13:34:49;3.33;;;1.80;;
24650;SDS011;12783;48.824;8.662;2024-03-02T13:37:16;1.77;;;1.40;;
24650;SDS011;12783;48.824;8.662;2024-03-02T13:39:43;1.85;;;1.42;;
24650;SDS011;12783;48.824;8.662;2024-03-02T13:42:10;2.50;;;1.50;;
24650;SDS011;12783;48.824;8.662;2024-03-02T13:44:41;2.17;;;1.48;;
24650;SDS011;12783;48.824;8.662;2024-03-02T13:47:12;2.30;;;1.50;;
24650;SDS011;12783;48.824;8.662;2024-03-02T13:49:38;1.98;;;1.20;;
24650;SDS011;12783;48.824;8.662;2024-03-02T13:52:10;4.63;;;1.55;;
24650;SDS011;12783;48.824;8.662;2024-03-02T13:54:39;1.50;;;1.10;;
24650;SDS011;12783;48.824;8.662;2024-03-02T13:57:07;1.38;;;1.20;;
24650;SDS011;12783;48.824;8.662;2024-03-02T13:59:35;1.63;;;1.20;;
24650;SDS011;12783;48.824;8.662;2024-03-02T14:02:02;1.75;;;1.17;;
24650;SDS011;12783;48.824;8.662;2024-03-02T14:04:36;3.92;;;1.33;;
24650;SDS011;12783;48.824;8.662;2024-03-02T14:07:04;1.85;;;0.98;;
24650;SDS011;12783;48.824;8.662;2024-03-02T14:09:35;1.88;;;1.38;;
24650;SDS011;12783;48.824;8.662;2024-03-02T14:12:03;6.38;;;1.35;;
24650;SDS011;12783;48.824;8.662;2024-03-02T14:14:31;3.15;;;1.48;;
24650;SDS011;12783;48.824;8.662;2024-03-02T14:16:59;1.40;;;1.20;;
24650;SDS011;12783;48.824;8.662;2024-03-02T14:19:30;1.48;;;1.30;;
24650;SDS011;12783;48.824;8.662;2024-03-02T14:21:57;1.40;;;1.30;;
24650;SDS011;12783;48.824;8.662;2024-03-02T14:24:24;1.27;;;1.10;;
24650;SDS011;12783;48.824;8.662;2024-03-02T14:26:52;1.33;;;1.20;;
24650;SDS011;12783;48.824;8.662;2024-03-02T14:29:28;6.38;;;1.30;;
24650;SDS011;12783;48.824;8.662;2024-03-02T14:31:55;1.30;;;1.02;;
24650;SDS011;12783;48.824;8.662;2024-03-02T14:34:22;2.58;;;1.20;;
24650;SDS011;12783;48.824;8.662;2024-03-02T14:36:49;1.95;;;1.25;;
24650;SDS011;12783;48.824;8.662;2024-03-02T14:39:16;1.98;;;1.25;;
24650;SDS011;12783;48.824;8.662;2024-03-02T14:41:44;2.00;;;1.30;;
24650;SDS011;12783;48.824;8.662;2024-03-02T14:44:11;1.70;;;1.20;;
24650;SDS011;12783;48.824;8.662;2024-03-02T14:46:38;1.98;;;1.45;;
24650;SDS011;12783;48.824;8.662;2024-03-02T14:49:07;2.45;;;1.40;;
24650;SDS011;12783;48.824;8.662;2024-03-02T14:51:34;1.33;;;1.08;;
24650;SDS011;12783;48.824;8.662;2024-03-02T14:54:01;1.40;;;0.90;;
24650;SDS011;12783;48.824;8.662;2024-03-02T14:56:29;1.85;;;1.17;;
24650;SDS011;12783;48.824;8.662;2024-03-02T14:58:56;1.30;;;0.93;;
24650;SDS011;12783;48.824;8.662;2024-03-02T15:01:23;1.60;;;1.10;;
24650;SDS011;12783;48.824;8.662;2024-03-02T15:03:51;1.50;;;0.90;;
24650;SDS011;12783;48.824;8.662;2024-03-02T15:06:18;1.80;;;1.10;;
24650;SDS011;12783;48.824;8.662;2024-03-02T15:08:44;2.03;;;1.08;;